Lockney, TX (79241)

11:31 PM CDT on October 22, 2014 (GMT -0500)
WT_Meso Floydada 2NE | Change Station
CLOSE
Current Station
Personal Weather Station
Location: Floydada, TX
Elevation: 3179 ft
Nearby Weather Stations

Elev 3179 ft 34.00 °N, 101.33 °W | Updated 36 minutes ago

Overcast
Overcast
60 °F
Feels Like 60 °F
N
11
Wind Variable Wind from South
Gusts 15.0 mph

Today
High -- | Low -- °F
--% Chance of Precip.
Yesterday
High -- | Low -- °F
Precip. -- in
7:56 AM 7:03 PM
Waning Crescent, 1% visible
Pressure 30.13 in
Visibility 7.0 miles
Clouds Overcast 900 ft
Dew Point 58 °F
Humidity 95%
Rainfall -999.00 in
Snow Depth Not available.
UV 0 out of 12
Pollen 4.10 out of 12
Air Quality Not available.
Flu Activity Sporadic
METAR KPVW 230415Z AUTO 19009KT 7SM OVC009 16/15 A3013 RMK AO2 T01570145

More Conditions Fewer Conditions

Pressure 30.13 in
Visibility 7.0 miles
Clouds Overcast 900 ft
Dew Point 58 °F
Humidity 95%
Rainfall -999.00 in
Snow Depth Not available.
UV 0 out of 12
Pollen 4.10 out of 12
Air Quality Not available.
Flu Activity Sporadic
METAR KPVW 230415Z AUTO 19009KT 7SM OVC009 16/15 A3013 RMK AO2 T01570145

More Conditions Fewer Conditions

10-Day Weather Forecast

Almanac

Astronomy

Oct. 22, 2014 Rise Set
Actual Time 7:56 AM CDT 7:03 PM CDT
Civil Twilight 7:31 AM CDT 7:28 PM CDT
Nautical Twilight 7:02 AM CDT 7:57 PM CDT
Astronomical Twilight 6:32 AM CDT 8:26 PM CDT
Moon 6:43 AM CDT (10/22) 6:28 PM CDT (10/22)
Length of Visible Light 11h 57m
Length of Day
11h 06m
Tomorrow will be 1m 58s shorter.
Waning Crescent, 1% of the Moon is Illuminated
Oct 23
Waning Crescent
Oct 23
New
Oct 30
First Quarter
Nov 6
Full
Nov 14
Last Quarter

Yesterday's Extremes

State Highs State Lows

Community

WunderPhotos

Upload Photos

1,764,154 photos uploaded!

Nearby

Snow Depth

Station Depth Elevation
No new snow has been reported.

Earthquake Activity

City Distance Mag. Time & Date
No recent earthquake activity has been reported nearby.
Minimum magnitude displayed is 2.5.

Coastal Water Temperatures

Place Temperature
No Stations Reporting

Nearby Weather Stations